sensor_id;sensor_type;location;lat;lon;timestamp;temperature;humidity
70366;DHT22;57787;48.216;12.396;2022-08-05T00:00:12;19.70;75.80
70366;DHT22;57787;48.216;12.396;2022-08-05T00:02:42;19.60;76.30
70366;DHT22;57787;48.216;12.396;2022-08-05T00:05:17;19.60;76.40
70366;DHT22;57787;48.216;12.396;2022-08-05T00:08:06;19.60;78.00
70366;DHT22;57787;48.216;12.396;2022-08-05T00:10:58;19.50;76.90
70366;DHT22;57787;48.216;12.396;2022-08-05T00:13:28;19.50;76.20
70366;DHT22;57787;48.216;12.396;2022-08-05T00:16:08;19.40;77.10
70366;DHT22;57787;48.216;12.396;2022-08-05T00:18:38;19.40;78.30
70366;DHT22;57787;48.216;12.396;2022-08-05T00:21:07;19.40;77.10
70366;DHT22;57787;48.216;12.396;2022-08-05T00:23:35;19.30;76.40
70366;DHT22;57787;48.216;12.396;2022-08-05T00:26:19;19.30;76.60
70366;DHT22;57787;48.216;12.396;2022-08-05T00:28:47;19.30;75.90
70366;DHT22;57787;48.216;12.396;2022-08-05T00:31:15;19.30;76.10
70366;DHT22;57787;48.216;12.396;2022-08-05T00:34:02;19.30;76.40
70366;DHT22;57787;48.216;12.396;2022-08-05T00:36:50;19.20;76.10
70366;DHT22;57787;48.216;12.396;2022-08-05T00:39:37;19.20;77.10
70366;DHT22;57787;48.216;12.396;2022-08-05T00:42:10;19.20;77.60
70366;DHT22;57787;48.216;12.396;2022-08-05T00:44:57;19.20;76.80
70366;DHT22;57787;48.216;12.396;2022-08-05T00:47:24;19.20;77.80
70366;DHT22;57787;48.216;12.396;2022-08-05T00:49:57;19.20;78.50
70366;DHT22;57787;48.216;12.396;2022-08-05T00:52:24;19.10;79.00
70366;DHT22;57787;48.216;12.396;2022-08-05T00:54:54;19.10;78.50
70366;DHT22;57787;48.216;12.396;2022-08-05T00:57:22;19.10;78.10
70366;DHT22;57787;48.216;12.396;2022-08-05T01:00:04;19.00;78.10
70366;DHT22;57787;48.216;12.396;2022-08-05T01:02:37;19.00;78.30
70366;DHT22;57787;48.216;12.396;2022-08-05T01:05:04;19.00;77.90
70366;DHT22;57787;48.216;12.396;2022-08-05T01:07:35;18.90;79.40
70366;DHT22;57787;48.216;12.396;2022-08-05T01:10:31;18.90;79.00
70366;DHT22;57787;48.216;12.396;2022-08-05T01:13:03;18.80;80.00
70366;DHT22;57787;48.216;12.396;2022-08-05T01:15:50;18.80;79.30
70366;DHT22;57787;48.216;12.396;2022-08-05T01:18:22;18.80;80.00
70366;DHT22;57787;48.216;12.396;2022-08-05T01:23:28;18.70;80.10
70366;DHT22;57787;48.216;12.396;2022-08-05T01:31:08;18.60;81.10
70366;DHT22;57787;48.216;12.396;2022-08-05T01:33:38;18.50;81.60
70366;DHT22;57787;48.216;12.396;2022-08-05T01:36:15;18.50;81.30
70366;DHT22;57787;48.216;12.396;2022-08-05T01:38:46;18.40;80.60
70366;DHT22;57787;48.216;12.396;2022-08-05T01:41:16;18.40;80.60
70366;DHT22;57787;48.216;12.396;2022-08-05T01:43:47;18.40;80.80
70366;DHT22;57787;48.216;12.396;2022-08-05T01:46:15;18.30;80.80
70366;DHT22;57787;48.216;12.396;2022-08-05T01:49:02;18.30;80.90
70366;DHT22;57787;48.216;12.396;2022-08-05T01:51:55;18.30;80.20
70366;DHT22;57787;48.216;12.396;2022-08-05T01:54:25;18.30;80.60
70366;DHT22;57787;48.216;12.396;2022-08-05T01:56:55;18.30;81.00
70366;DHT22;57787;48.216;12.396;2022-08-05T01:59:45;18.30;80.40
70366;DHT22;57787;48.216;12.396;2022-08-05T02:02:12;18.30;81.80
70366;DHT22;57787;48.216;12.396;2022-08-05T02:04:42;18.20;80.70
70366;DHT22;57787;48.216;12.396;2022-08-05T02:07:15;18.20;81.00
70366;DHT22;57787;48.216;12.396;2022-08-05T02:09:48;18.20;80.20
70366;DHT22;57787;48.216;12.396;2022-08-05T02:15:34;18.20;82.10
70366;DHT22;57787;48.216;12.396;2022-08-05T02:17:52;18.20;82.00
70366;DHT22;57787;48.216;12.396;2022-08-05T02:20:48;18.10;81.60
70366;DHT22;57787;48.216;12.396;2022-08-05T02:23:19;18.10;81.20
70366;DHT22;57787;48.216;12.396;2022-08-05T02:25:47;18.10;81.20
70366;DHT22;57787;48.216;12.396;2022-08-05T02:28:18;18.10;82.80
70366;DHT22;57787;48.216;12.396;2022-08-05T02:30:59;18.00;82.30
70366;DHT22;57787;48.216;12.396;2022-08-05T02:33:29;18.00;81.70
70366;DHT22;57787;48.216;12.396;2022-08-05T02:36:05;18.00;81.60
70366;DHT22;57787;48.216;12.396;2022-08-05T02:38:35;18.00;81.80
70366;DHT22;57787;48.216;12.396;2022-08-05T02:41:03;18.00;82.00
70366;DHT22;57787;48.216;12.396;2022-08-05T02:43:43;18.00;82.10
70366;DHT22;57787;48.216;12.396;2022-08-05T02:46:35;17.90;81.60
70366;DHT22;57787;48.216;12.396;2022-08-05T02:49:25;18.00;81.80
70366;DHT22;57787;48.216;12.396;2022-08-05T02:52:04;17.90;83.60
70366;DHT22;57787;48.216;12.396;2022-08-05T02:54:34;17.90;84.30
70366;DHT22;57787;48.216;12.396;2022-08-05T02:57:07;17.90;83.80
70366;DHT22;57787;48.216;12.396;2022-08-05T02:59:54;17.90;83.90
70366;DHT22;57787;48.216;12.396;2022-08-05T03:02:23;17.80;83.90
70366;DHT22;57787;48.216;12.396;2022-08-05T03:04:53;17.80;84.20
70366;DHT22;57787;48.216;12.396;2022-08-05T03:07:23;17.80;83.90
70366;DHT22;57787;48.216;12.396;2022-08-05T03:10:11;17.80;84.00
70366;DHT22;57787;48.216;12.396;2022-08-05T03:12:41;17.70;83.50
70366;DHT22;57787;48.216;12.396;2022-08-05T03:15:08;17.70;85.00
70366;DHT22;57787;48.216;12.396;2022-08-05T03:17:39;17.70;84.90
70366;DHT22;57787;48.216;12.396;2022-08-05T03:20:10;17.70;83.90
70366;DHT22;57787;48.216;12.396;2022-08-05T03:22:39;17.70;84.20
70366;DHT22;57787;48.216;12.396;2022-08-05T03:25:16;17.70;84.60
70366;DHT22;57787;48.216;12.396;2022-08-05T03:28:04;17.70;84.60
70366;DHT22;57787;48.216;12.396;2022-08-05T03:30:33;17.60;84.30
70366;DHT22;57787;48.216;12.396;2022-08-05T03:33:01;17.70;84.80
70366;DHT22;57787;48.216;12.396;2022-08-05T03:35:29;17.70;85.00
70366;DHT22;57787;48.216;12.396;2022-08-05T03:37:59;17.60;84.70
70366;DHT22;57787;48.216;12.396;2022-08-05T03:40:26;17.70;85.00
70366;DHT22;57787;48.216;12.396;2022-08-05T03:42:58;17.60;85.50
70366;DHT22;57787;48.216;12.396;2022-08-05T03:45:46;17.60;85.70
70366;DHT22;57787;48.216;12.396;2022-08-05T03:48:25;17.60;84.90
70366;DHT22;57787;48.216;12.396;2022-08-05T03:51:12;17.60;84.50
70366;DHT22;57787;48.216;12.396;2022-08-05T03:54:03;17.60;85.50
70366;DHT22;57787;48.216;12.396;2022-08-05T03:56:52;17.70;85.00
70366;DHT22;57787;48.216;12.396;2022-08-05T03:59:30;17.70;85.50
70366;DHT22;57787;48.216;12.396;2022-08-05T04:02:20;17.70;85.10
70366;DHT22;57787;48.216;12.396;2022-08-05T04:05:08;17.80;84.90
70366;DHT22;57787;48.216;12.396;2022-08-05T04:07:37;17.80;85.00
70366;DHT22;57787;48.216;12.396;2022-08-05T04:10:27;17.80;85.20
70366;DHT22;57787;48.216;12.396;2022-08-05T04:13:04;17.80;85.20
70366;DHT22;57787;48.216;12.396;2022-08-05T04:15:31;17.90;86.00
70366;DHT22;57787;48.216;12.396;2022-08-05T04:18:05;18.00;85.80
70366;DHT22;57787;48.216;12.396;2022-08-05T04:20:35;18.10;85.20
70366;DHT22;57787;48.216;12.396;2022-08-05T04:23:02;18.10;85.00
70366;DHT22;57787;48.216;12.396;2022-08-05T04:25:29;18.30;84.80
70366;DHT22;57787;48.216;12.396;2022-08-05T04:28:16;18.30;84.90
70366;DHT22;57787;48.216;12.396;2022-08-05T04:30:43;18.50;84.60
70366;DHT22;57787;48.216;12.396;2022-08-05T04:33:12;18.60;84.30
70366;DHT22;57787;48.216;12.396;2022-08-05T04:35:41;18.70;84.30
70366;DHT22;57787;48.216;12.396;2022-08-05T04:38:29;18.80;84.10
70366;DHT22;57787;48.216;12.396;2022-08-05T04:41:06;18.90;83.30
70366;DHT22;57787;48.216;12.396;2022-08-05T04:43:36;19.10;83.00
70366;DHT22;57787;48.216;12.396;2022-08-05T04:46:12;19.10;83.10
70366;DHT22;57787;48.216;12.396;2022-08-05T04:48:53;19.20;82.40
70366;DHT22;57787;48.216;12.396;2022-08-05T04:51:20;19.20;82.70
70366;DHT22;57787;48.216;12.396;2022-08-05T04:53:49;19.30;82.60
70366;DHT22;57787;48.216;12.396;2022-08-05T04:56:16;19.30;82.70
70366;DHT22;57787;48.216;12.396;2022-08-05T04:59:02;19.30;82.70
70366;DHT22;57787;48.216;12.396;2022-08-05T05:01:50;19.40;82.40
70366;DHT22;57787;48.216;12.396;2022-08-05T05:04:37;19.50;81.90
70366;DHT22;57787;48.216;12.396;2022-08-05T05:07:16;19.50;81.70
70366;DHT22;57787;48.216;12.396;2022-08-05T05:09:55;19.60;81.40
70366;DHT22;57787;48.216;12.396;2022-08-05T05:12:22;19.60;81.60
70366;DHT22;57787;48.216;12.396;2022-08-05T05:14:53;19.50;81.40
70366;DHT22;57787;48.216;12.396;2022-08-05T05:17:20;19.50;81.20
70366;DHT22;57787;48.216;12.396;2022-08-05T05:20:07;19.60;81.70
70366;DHT22;57787;48.216;12.396;2022-08-05T05:22:34;19.50;81.80
70366;DHT22;57787;48.216;12.396;2022-08-05T05:25:06;19.50;81.80
70366;DHT22;57787;48.216;12.396;2022-08-05T05:27:43;19.50;81.80
70366;DHT22;57787;48.216;12.396;2022-08-05T05:30:21;19.60;82.20
70366;DHT22;57787;48.216;12.396;2022-08-05T05:32:56;20.10;81.80
70366;DHT22;57787;48.216;12.396;2022-08-05T05:35:43;20.90;80.60
70366;DHT22;57787;48.216;12.396;2022-08-05T05:38:10;21.90;77.80
70366;DHT22;57787;48.216;12.396;2022-08-05T05:40:39;22.80;76.10
70366;DHT22;57787;48.216;12.396;2022-08-05T05:43:18;23.70;73.50
70366;DHT22;57787;48.216;12.396;2022-08-05T05:46:05;24.50;70.50
70366;DHT22;57787;48.216;12.396;2022-08-05T05:48:44;25.30;67.30
70366;DHT22;57787;48.216;12.396;2022-08-05T05:51:23;26.00;63.20
70366;DHT22;57787;48.216;12.396;2022-08-05T05:53:51;26.70;61.40
70366;DHT22;57787;48.216;12.396;2022-08-05T05:56:24;27.20;59.70
70366;DHT22;57787;48.216;12.396;2022-08-05T05:59:00;27.80;58.60
70366;DHT22;57787;48.216;12.396;2022-08-05T06:01:30;28.10;57.10
70366;DHT22;57787;48.216;12.396;2022-08-05T06:04:04;28.40;56.10
70366;DHT22;57787;48.216;12.396;2022-08-05T06:06:32;28.50;54.40
70366;DHT22;57787;48.216;12.396;2022-08-05T06:09:01;28.50;54.40
70366;DHT22;57787;48.216;12.396;2022-08-05T06:11:31;28.60;53.90
70366;DHT22;57787;48.216;12.396;2022-08-05T06:13:59;28.60;53.30
70366;DHT22;57787;48.216;12.396;2022-08-05T06:16:27;28.60;53.30
70366;DHT22;57787;48.216;12.396;2022-08-05T06:19:03;28.60;53.50
70366;DHT22;57787;48.216;12.396;2022-08-05T06:21:33;28.60;53.90
70366;DHT22;57787;48.216;12.396;2022-08-05T06:24:04;28.50;53.50
70366;DHT22;57787;48.216;12.396;2022-08-05T06:26:39;28.40;53.80
70366;DHT22;57787;48.216;12.396;2022-08-05T06:29:19;28.30;54.10
70366;DHT22;57787;48.216;12.396;2022-08-05T06:32:07;28.30;53.90
70366;DHT22;57787;48.216;12.396;2022-08-05T06:34:53;28.20;54.30
70366;DHT22;57787;48.216;12.396;2022-08-05T06:37:26;28.20;54.60
70366;DHT22;57787;48.216;12.396;2022-08-05T06:40:13;28.20;54.50
70366;DHT22;57787;48.216;12.396;2022-08-05T06:42:49;28.30;55.10
70366;DHT22;57787;48.216;12.396;2022-08-05T06:45:19;28.30;55.30
70366;DHT22;57787;48.216;12.396;2022-08-05T06:47:47;28.40;53.90
70366;DHT22;57787;48.216;12.396;2022-08-05T06:50:34;28.50;54.00
70366;DHT22;57787;48.216;12.396;2022-08-05T06:53:00;28.60;54.40
70366;DHT22;57787;48.216;12.396;2022-08-05T06:55:44;28.70;52.70
70366;DHT22;57787;48.216;12.396;2022-08-05T06:58:11;28.90;53.10
70366;DHT22;57787;48.216;12.396;2022-08-05T07:01:02;29.00;52.90
70366;DHT22;57787;48.216;12.396;2022-08-05T07:03:29;29.10;51.70
70366;DHT22;57787;48.216;12.396;2022-08-05T07:05:59;29.20;51.20
70366;DHT22;57787;48.216;12.396;2022-08-05T07:08:42;29.30;50.60
70366;DHT22;57787;48.216;12.396;2022-08-05T07:11:18;29.50;50.80
70366;DHT22;57787;48.216;12.396;2022-08-05T07:13:50;29.60;50.40
70366;DHT22;57787;48.216;12.396;2022-08-05T07:16:46;29.80;49.90
70366;DHT22;57787;48.216;12.396;2022-08-05T07:19:37;29.90;48.80
70366;DHT22;57787;48.216;12.396;2022-08-05T07:22:24;30.00;48.20
70366;DHT22;57787;48.216;12.396;2022-08-05T07:24:58;30.20;48.00
70366;DHT22;57787;48.216;12.396;2022-08-05T07:27:45;30.40;48.00
70366;DHT22;57787;48.216;12.396;2022-08-05T07:30:34;30.50;46.00
70366;DHT22;57787;48.216;12.396;2022-08-05T07:33:06;30.60;46.00
70366;DHT22;57787;48.216;12.396;2022-08-05T07:35:39;30.80;46.00
70366;DHT22;57787;48.216;12.396;2022-08-05T07:38:26;30.90;46.10
70366;DHT22;57787;48.216;12.396;2022-08-05T07:41:03;31.00;43.70
70366;DHT22;57787;48.216;12.396;2022-08-05T07:43:51;31.10;44.40
70366;DHT22;57787;48.216;12.396;2022-08-05T07:46:24;31.20;42.80
70366;DHT22;57787;48.216;12.396;2022-08-05T07:48:56;31.30;43.70
70366;DHT22;57787;48.216;12.396;2022-08-05T07:51:34;31.30;43.10
70366;DHT22;57787;48.216;12.396;2022-08-05T07:54:19;31.10;45.30
70366;DHT22;57787;48.216;12.396;2022-08-05T07:56:52;31.00;46.80
70366;DHT22;57787;48.216;12.396;2022-08-05T07:59:39;30.80;46.30
70366;DHT22;57787;48.216;12.396;2022-08-05T08:02:09;30.70;47.90
70366;DHT22;57787;48.216;12.396;2022-08-05T08:04:46;30.90;46.00
70366;DHT22;57787;48.216;12.396;2022-08-05T08:07:17;31.10;46.00
70366;DHT22;57787;48.216;12.396;2022-08-05T08:09:49;31.40;45.80
70366;DHT22;57787;48.216;12.396;2022-08-05T08:12:18;31.70;45.10
70366;DHT22;57787;48.216;12.396;2022-08-05T08:15:06;31.80;44.80
70366;DHT22;57787;48.216;12.396;2022-08-05T08:17:44;32.10;43.90
70366;DHT22;57787;48.216;12.396;2022-08-05T08:20:21;32.20;42.10
70366;DHT22;57787;48.216;12.396;2022-08-05T08:23:09;32.30;42.80
70366;DHT22;57787;48.216;12.396;2022-08-05T08:25:56;32.50;42.30
70366;DHT22;57787;48.216;12.396;2022-08-05T08:28:28;32.70;43.00
70366;DHT22;57787;48.216;12.396;2022-08-05T08:31:15;32.80;43.00
70366;DHT22;57787;48.216;12.396;2022-08-05T08:33:44;32.90;39.90
70366;DHT22;57787;48.216;12.396;2022-08-05T08:36:12;32.90;38.60
70366;DHT22;57787;48.216;12.396;2022-08-05T08:38:59;32.90;39.60
70366;DHT22;57787;48.216;12.396;2022-08-05T08:41:27;33.00;38.40
70366;DHT22;57787;48.216;12.396;2022-08-05T08:44:16;33.00;39.50
70366;DHT22;57787;48.216;12.396;2022-08-05T08:47:05;33.10;39.30
70366;DHT22;57787;48.216;12.396;2022-08-05T08:49:53;33.20;39.10
70366;DHT22;57787;48.216;12.396;2022-08-05T08:52:41;33.00;38.20
70366;DHT22;57787;48.216;12.396;2022-08-05T08:55:17;33.00;38.10
70366;DHT22;57787;48.216;12.396;2022-08-05T08:58:05;32.90;37.50
70366;DHT22;57787;48.216;12.396;2022-08-05T09:00:36;32.90;38.40
70366;DHT22;57787;48.216;12.396;2022-08-05T09:03:04;32.90;40.20
70366;DHT22;57787;48.216;12.396;2022-08-05T09:05:32;33.00;39.00
70366;DHT22;57787;48.216;12.396;2022-08-05T09:08:21;32.90;39.60
70366;DHT22;57787;48.216;12.396;2022-08-05T09:10:53;33.00;40.50
70366;DHT22;57787;48.216;12.396;2022-08-05T09:13:20;32.80;40.10
70366;DHT22;57787;48.216;12.396;2022-08-05T09:15:49;32.60;39.90
70366;DHT22;57787;48.216;12.396;2022-08-05T09:18:16;32.40;40.00
70366;DHT22;57787;48.216;12.396;2022-08-05T09:20:43;32.40;42.60
70366;DHT22;57787;48.216;12.396;2022-08-05T09:23:12;32.30;39.30
70366;DHT22;57787;48.216;12.396;2022-08-05T09:25:49;32.20;40.40
70366;DHT22;57787;48.216;12.396;2022-08-05T09:28:30;32.20;41.10
70366;DHT22;57787;48.216;12.396;2022-08-05T09:31:00;32.20;40.70
70366;DHT22;57787;48.216;12.396;2022-08-05T09:33:55;32.20;39.80
70366;DHT22;57787;48.216;12.396;2022-08-05T09:36:40;32.30;41.20
70366;DHT22;57787;48.216;12.396;2022-08-05T09:39:22;32.30;39.20
70366;DHT22;57787;48.216;12.396;2022-08-05T09:42:07;32.20;39.60
70366;DHT22;57787;48.216;12.396;2022-08-05T09:44:53;32.30;40.10
70366;DHT22;57787;48.216;12.396;2022-08-05T09:47:23;32.40;40.80
70366;DHT22;57787;48.216;12.396;2022-08-05T09:49:52;32.40;39.80
70366;DHT22;57787;48.216;12.396;2022-08-05T09:52:29;32.50;39.90
70366;DHT22;57787;48.216;12.396;2022-08-05T09:54:58;32.50;39.20
70366;DHT22;57787;48.216;12.396;2022-08-05T09:57:45;32.40;40.20
70366;DHT22;57787;48.216;12.396;2022-08-05T10:00:20;32.50;41.40
70366;DHT22;57787;48.216;12.396;2022-08-05T10:02:50;32.60;40.20
70366;DHT22;57787;48.216;12.396;2022-08-05T10:05:23;32.60;39.80
70366;DHT22;57787;48.216;12.396;2022-08-05T10:07:53;32.50;39.40
70366;DHT22;57787;48.216;12.396;2022-08-05T10:13:10;32.60;40.30
70366;DHT22;57787;48.216;12.396;2022-08-05T10:15:40;32.70;39.60
70366;DHT22;57787;48.216;12.396;2022-08-05T10:22:07;32.80;39.60
70366;DHT22;57787;48.216;12.396;2022-08-05T10:24:55;32.90;40.30
70366;DHT22;57787;48.216;12.396;2022-08-05T10:27:22;33.00;39.40
70366;DHT22;57787;48.216;12.396;2022-08-05T10:30:10;33.10;39.40
70366;DHT22;57787;48.216;12.396;2022-08-05T10:32:57;33.20;41.10
70366;DHT22;57787;48.216;12.396;2022-08-05T10:35:28;33.20;38.00
70366;DHT22;57787;48.216;12.396;2022-08-05T10:38:06;33.20;38.70
70366;DHT22;57787;48.216;12.396;2022-08-05T10:40:38;33.10;37.30
70366;DHT22;57787;48.216;12.396;2022-08-05T10:43:12;33.20;38.30
70366;DHT22;57787;48.216;12.396;2022-08-05T10:45:40;33.30;38.80
70366;DHT22;57787;48.216;12.396;2022-08-05T10:51:20;33.10;37.10
70366;DHT22;57787;48.216;12.396;2022-08-05T10:53:55;32.90;38.10
70366;DHT22;57787;48.216;12.396;2022-08-05T10:56:27;33.10;38.70
70366;DHT22;57787;48.216;12.396;2022-08-05T11:01:39;33.10;37.60
70366;DHT22;57787;48.216;12.396;2022-08-05T11:04:28;33.20;37.60
70366;DHT22;57787;48.216;12.396;2022-08-05T11:09:27;33.30;38.20
70366;DHT22;57787;48.216;12.396;2022-08-05T11:17:50;33.40;38.80
70366;DHT22;57787;48.216;12.396;2022-08-05T11:20:37;33.40;36.60
70366;DHT22;57787;48.216;12.396;2022-08-05T11:28:57;33.60;37.50
70366;DHT22;57787;48.216;12.396;2022-08-05T11:31:39;33.60;36.80
70366;DHT22;57787;48.216;12.396;2022-08-05T11:34:41;33.40;36.00
70366;DHT22;57787;48.216;12.396;2022-08-05T11:37:40;33.40;36.40
70366;DHT22;57787;48.216;12.396;2022-08-05T11:43:19;33.50;35.60
70366;DHT22;57787;48.216;12.396;2022-08-05T11:46:07;33.60;36.90
70366;DHT22;57787;48.216;12.396;2022-08-05T11:48:54;33.50;35.70
70366;DHT22;57787;48.216;12.396;2022-08-05T11:51:25;33.70;35.40
70366;DHT22;57787;48.216;12.396;2022-08-05T11:54:19;33.80;37.00
70366;DHT22;57787;48.216;12.396;2022-08-05T11:57:00;33.80;35.70
70366;DHT22;57787;48.216;12.396;2022-08-05T11:59:49;33.80;36.30
70366;DHT22;57787;48.216;12.396;2022-08-05T12:02:16;34.00;35.40
70366;DHT22;57787;48.216;12.396;2022-08-05T12:04:55;33.90;36.20
70366;DHT22;57787;48.216;12.396;2022-08-05T12:07:27;33.80;35.50
70366;DHT22;57787;48.216;12.396;2022-08-05T12:10:19;33.90;33.60
70366;DHT22;57787;48.216;12.396;2022-08-05T12:12:51;33.80;34.60
70366;DHT22;57787;48.216;12.396;2022-08-05T12:15:26;33.90;36.40
70366;DHT22;57787;48.216;12.396;2022-08-05T12:18:04;33.90;34.20
70366;DHT22;57787;48.216;12.396;2022-08-05T12:20:37;33.90;34.10
70366;DHT22;57787;48.216;12.396;2022-08-05T12:23:08;33.90;33.00
70366;DHT22;57787;48.216;12.396;2022-08-05T12:25:51;34.00;35.30
70366;DHT22;57787;48.216;12.396;2022-08-05T12:31:15;33.90;36.40
70366;DHT22;57787;48.216;12.396;2022-08-05T12:34:00;33.90;35.30
70366;DHT22;57787;48.216;12.396;2022-08-05T12:36:28;33.90;33.10
70366;DHT22;57787;48.216;12.396;2022-08-05T12:38:57;33.80;33.10
70366;DHT22;57787;48.216;12.396;2022-08-05T12:41:32;33.80;34.60
70366;DHT22;57787;48.216;12.396;2022-08-05T12:44:10;33.70;34.30
70366;DHT22;57787;48.216;12.396;2022-08-05T12:46:41;33.60;34.30
70366;DHT22;57787;48.216;12.396;2022-08-05T12:49:14;33.40;34.60
70366;DHT22;57787;48.216;12.396;2022-08-05T12:51:45;33.40;33.80
70366;DHT22;57787;48.216;12.396;2022-08-05T12:54:33;33.40;34.40
70366;DHT22;57787;48.216;12.396;2022-08-05T12:57:04;33.30;34.00
70366;DHT22;57787;48.216;12.396;2022-08-05T12:59:48;33.40;34.70
70366;DHT22;57787;48.216;12.396;2022-08-05T13:02:36;33.40;35.00
70366;DHT22;57787;48.216;12.396;2022-08-05T13:05:06;33.50;33.90
70366;DHT22;57787;48.216;12.396;2022-08-05T13:07:38;33.50;33.90
70366;DHT22;57787;48.216;12.396;2022-08-05T13:10:29;33.50;34.40
70366;DHT22;57787;48.216;12.396;2022-08-05T13:12:57;33.60;34.40
70366;DHT22;57787;48.216;12.396;2022-08-05T13:15:30;33.70;35.60
70366;DHT22;57787;48.216;12.396;2022-08-05T13:18:17;33.70;34.30
70366;DHT22;57787;48.216;12.396;2022-08-05T13:20:49;33.80;35.60
70366;DHT22;57787;48.216;12.396;2022-08-05T13:23:37;33.80;34.60
70366;DHT22;57787;48.216;12.396;2022-08-05T13:26:17;33.90;35.10
70366;DHT22;57787;48.216;12.396;2022-08-05T13:28:55;33.90;35.80
70366;DHT22;57787;48.216;12.396;2022-08-05T13:31:28;34.10;36.30
70366;DHT22;57787;48.216;12.396;2022-08-05T13:34:16;34.20;33.80
70366;DHT22;57787;48.216;12.396;2022-08-05T13:36:52;34.20;34.10
70366;DHT22;57787;48.216;12.396;2022-08-05T13:39:19;34.30;36.60
70366;DHT22;57787;48.216;12.396;2022-08-05T13:42:07;34.30;35.80
70366;DHT22;57787;48.216;12.396;2022-08-05T13:44:43;34.20;34.40
70366;DHT22;57787;48.216;12.396;2022-08-05T13:47:12;34.10;33.50
70366;DHT22;57787;48.216;12.396;2022-08-05T13:50:00;34.00;33.70
70366;DHT22;57787;48.216;12.396;2022-08-05T13:52:30;33.80;34.70
70366;DHT22;57787;48.216;12.396;2022-08-05T13:55:02;33.80;36.10
70366;DHT22;57787;48.216;12.396;2022-08-05T13:57:35;33.70;34.70
70366;DHT22;57787;48.216;12.396;2022-08-05T14:00:18;33.70;39.10
70366;DHT22;57787;48.216;12.396;2022-08-05T14:02:54;33.60;37.10
70366;DHT22;57787;48.216;12.396;2022-08-05T14:05:21;33.50;37.20
70366;DHT22;57787;48.216;12.396;2022-08-05T14:08:09;33.50;36.30
70366;DHT22;57787;48.216;12.396;2022-08-05T14:10:47;33.40;41.60
70366;DHT22;57787;48.216;12.396;2022-08-05T14:13:14;33.40;42.40
70366;DHT22;57787;48.216;12.396;2022-08-05T14:15:42;33.30;39.30
70366;DHT22;57787;48.216;12.396;2022-08-05T14:18:31;33.30;41.30
70366;DHT22;57787;48.216;12.396;2022-08-05T14:20:58;33.30;37.60
70366;DHT22;57787;48.216;12.396;2022-08-05T14:23:46;33.20;37.30
70366;DHT22;57787;48.216;12.396;2022-08-05T14:26:14;33.20;35.60
70366;DHT22;57787;48.216;12.396;2022-08-05T14:29:02;33.30;39.10
70366;DHT22;57787;48.216;12.396;2022-08-05T14:31:30;33.30;42.00
70366;DHT22;57787;48.216;12.396;2022-08-05T14:34:25;33.30;42.20
70366;DHT22;57787;48.216;12.396;2022-08-05T14:37:01;33.30;43.30
70366;DHT22;57787;48.216;12.396;2022-08-05T14:39:28;33.40;41.60
70366;DHT22;57787;48.216;12.396;2022-08-05T14:42:21;33.30;42.40
70366;DHT22;57787;48.216;12.396;2022-08-05T14:44:50;33.30;39.80
70366;DHT22;57787;48.216;12.396;2022-08-05T14:47:17;33.30;41.00
70366;DHT22;57787;48.216;12.396;2022-08-05T14:50:04;33.30;39.00
70366;DHT22;57787;48.216;12.396;2022-08-05T14:52:44;33.30;43.30
70366;DHT22;57787;48.216;12.396;2022-08-05T14:55:19;33.20;43.20
70366;DHT22;57787;48.216;12.396;2022-08-05T14:57:47;33.10;43.30
70366;DHT22;57787;48.216;12.396;2022-08-05T15:00:28;33.00;43.00
70366;DHT22;57787;48.216;12.396;2022-08-05T15:02:58;32.90;43.00
70366;DHT22;57787;48.216;12.396;2022-08-05T15:05:26;32.90;39.30
70366;DHT22;57787;48.216;12.396;2022-08-05T15:08:15;32.80;40.80
70366;DHT22;57787;48.216;12.396;2022-08-05T15:11:02;32.70;40.60
70366;DHT22;57787;48.216;12.396;2022-08-05T15:13:29;32.50;43.80
70366;DHT22;57787;48.216;12.396;2022-08-05T15:16:17;32.50;43.80
70366;DHT22;57787;48.216;12.396;2022-08-05T15:18:44;32.40;43.50
70366;DHT22;57787;48.216;12.396;2022-08-05T15:21:12;32.40;43.10
70366;DHT22;57787;48.216;12.396;2022-08-05T15:23:46;32.40;43.60
70366;DHT22;57787;48.216;12.396;2022-08-05T15:26:13;32.30;45.70
70366;DHT22;57787;48.216;12.396;2022-08-05T15:28:58;32.30;44.80
70366;DHT22;57787;48.216;12.396;2022-08-05T15:31:29;32.30;46.40
70366;DHT22;57787;48.216;12.396;2022-08-05T15:34:00;32.30;45.00
70366;DHT22;57787;48.216;12.396;2022-08-05T15:36:50;32.30;46.90
70366;DHT22;57787;48.216;12.396;2022-08-05T15:39:18;32.20;46.20
70366;DHT22;57787;48.216;12.396;2022-08-05T15:42:09;32.30;40.90
70366;DHT22;57787;48.216;12.396;2022-08-05T15:45:05;32.30;45.80
70366;DHT22;57787;48.216;12.396;2022-08-05T15:47:47;32.40;47.70
70366;DHT22;57787;48.216;12.396;2022-08-05T15:50:22;32.40;45.20
70366;DHT22;57787;48.216;12.396;2022-08-05T15:53:19;32.60;46.70
70366;DHT22;57787;48.216;12.396;2022-08-05T15:56:15;32.70;45.50
70366;DHT22;57787;48.216;12.396;2022-08-05T16:02:24;32.70;46.40
70366;DHT22;57787;48.216;12.396;2022-08-05T16:04:57;32.80;45.10
70366;DHT22;57787;48.216;12.396;2022-08-05T16:07:37;32.70;43.70
70366;DHT22;57787;48.216;12.396;2022-08-05T16:10:15;32.60;46.70
70366;DHT22;57787;48.216;12.396;2022-08-05T16:13:35;32.60;46.80
70366;DHT22;57787;48.216;12.396;2022-08-05T16:16:05;32.60;43.50
70366;DHT22;57787;48.216;12.396;2022-08-05T16:18:36;32.70;44.70
70366;DHT22;57787;48.216;12.396;2022-08-05T16:21:18;32.70;46.20
70366;DHT22;57787;48.216;12.396;2022-08-05T16:24:08;32.60;45.50
70366;DHT22;57787;48.216;12.396;2022-08-05T16:26:56;32.70;47.30
70366;DHT22;57787;48.216;12.396;2022-08-05T16:29:24;32.80;44.60
70366;DHT22;57787;48.216;12.396;2022-08-05T16:31:58;33.00;44.90
70366;DHT22;57787;48.216;12.396;2022-08-05T16:34:30;33.00;42.30
70366;DHT22;57787;48.216;12.396;2022-08-05T16:36:57;33.00;39.10
70366;DHT22;57787;48.216;12.396;2022-08-05T16:39:24;33.00;36.70
70366;DHT22;57787;48.216;12.396;2022-08-05T16:42:11;33.10;38.10
70366;DHT22;57787;48.216;12.396;2022-08-05T16:44:45;33.10;37.20
70366;DHT22;57787;48.216;12.396;2022-08-05T16:47:23;33.00;36.40
70366;DHT22;57787;48.216;12.396;2022-08-05T16:50:04;33.00;37.50
70366;DHT22;57787;48.216;12.396;2022-08-05T16:52:31;32.90;38.10
70366;DHT22;57787;48.216;12.396;2022-08-05T16:54:59;32.80;37.30
70366;DHT22;57787;48.216;12.396;2022-08-05T16:57:26;32.70;37.20
70366;DHT22;57787;48.216;12.396;2022-08-05T17:00:12;32.60;38.60